Estación de Lluta Medio

Ultimos registro cada 15 minutos 57
Estación Fecha / Hora Temperatura Humedad Lluvia Velocidad Dirección Radiación Presion
57 Lluta Medio 06-09-2026 14:00 23,2 56,3 0 4,5 298 731,5 952
56 Lluta Medio 06-09-2026 13:45 23,1 56,8 0 4,4 296 748 952
55 Lluta Medio 06-09-2026 13:30 22,9 57,2 0 4,5 297 761,3 952
54 Lluta Medio 06-09-2026 13:15 22,7 57,2 0 4,3 294 769,9 953
53 Lluta Medio 06-09-2026 13:00 22,6 58,2 0 4,5 297 775,1 953
52 Lluta Medio 06-09-2026 12:45 22,4 59,5 0 4,2 302 776,5 953
51 Lluta Medio 06-09-2026 12:30 21,9 58,6 0 3,6 303 773,4 953
50 Lluta Medio 06-09-2026 12:15 21,5 60,6 0 3,4 301 767,2 953
49 Lluta Medio 06-09-2026 12:00 21,2 61,6 0 3,5 287 756,2 954
48 Lluta Medio 06-09-2026 11:45 21 62,9 0 3,1 295 742,5 954
47 Lluta Medio 06-09-2026 11:30 20,7 61,6 0 2,4 285 724,3 954
46 Lluta Medio 06-09-2026 11:15 20,2 66,1 0 1,4 290 701,6 954
45 Lluta Medio 06-09-2026 11:00 19,6 63,7 0 0,9 288 675,2 954
44 Lluta Medio 06-09-2026 10:45 18,9 67,7 0 1,3 297 646,7 954
43 Lluta Medio 06-09-2026 10:30 18,2 68,2 0 0,6 305 613,2 954
42 Lluta Medio 06-09-2026 10:15 17,8 73,2 0 0,7 83 553,3 954
41 Lluta Medio 06-09-2026 10:00 17,2 73,5 0 0,6 85 475,1 954
40 Lluta Medio 06-09-2026 09:45 16,9 76,5 0 0 89 321,4 954
39 Lluta Medio 06-09-2026 09:30 16,4 78,6 0 0 0 209 954
38 Lluta Medio 06-09-2026 09:15 16,1 81,1 0 0 0 155,5 954
37 Lluta Medio 06-09-2026 09:00 15,8 83,3 0 0 0 108,8 954
36 Lluta Medio 06-09-2026 08:45 15,6 83,6 0 0 0 96,8 954
35 Lluta Medio 06-09-2026 08:30 15,6 84,3 0 0 0 92 953
34 Lluta Medio 06-09-2026 08:15 15,2 85,6 0 0 0 77,8 953
33 Lluta Medio 06-09-2026 08:00 15 86,1 0 0,1 84 49,8 953
32 Lluta Medio 06-09-2026 07:45 15 86,6 0 0,1 84 37,5 952
31 Lluta Medio 06-09-2026 07:30 14,9 87,4 0 0 0 23,8 952
30 Lluta Medio 06-09-2026 07:15 14,8 87,7 0 0 0 12,1 952
29 Lluta Medio 06-09-2026 07:00 14,8 88,4 0 0,4 88 2,8 952
28 Lluta Medio 06-09-2026 06:45 14,7 88,4 0 0,5 88 0,7 952
27 Lluta Medio 06-09-2026 06:30 14,8 87,6 0 0,2 87 0,4 952
26 Lluta Medio 06-09-2026 06:15 14,9 87,9 0 0 0 0,4 952
25 Lluta Medio 06-09-2026 06:00 14,9 87,9 0 0 0 0,4 951
24 Lluta Medio 06-09-2026 05:45 14,8 88 0 0 0 0,4 951
23 Lluta Medio 06-09-2026 05:30 14,8 88,6 0 0 0 0,4 951
22 Lluta Medio 06-09-2026 05:15 14,9 89 0 0 0 0,4 951
21 Lluta Medio 06-09-2026 05:00 15 89,1 0 0 0 0,4 951
20 Lluta Medio 06-09-2026 04:45 15 88,4 0 0 0 0,4 951
19 Lluta Medio 06-09-2026 04:30 15 88,4 0 0 0 0,4 952
18 Lluta Medio 06-09-2026 04:15 15,1 88,6 0 0 0 0,4 952
17 Lluta Medio 06-09-2026 04:00 15,1 89,7 0 0 0 0,4 952
16 Lluta Medio 06-09-2026 03:45 15,1 89,9 0 0 0 0,3 952
15 Lluta Medio 06-09-2026 03:30 15,1 90 0 0 0 0,2 952
14 Lluta Medio 06-09-2026 03:15 15 90 0 0 0 0,2 952
13 Lluta Medio 06-09-2026 03:00 15,1 90,4 0 0 0 0,2 952
12 Lluta Medio 06-09-2026 02:45 15,1 89,9 0 0 0 0,2 952
11 Lluta Medio 06-09-2026 02:30 15,2 89,8 0 0,1 88 0,2 952
10 Lluta Medio 06-09-2026 02:15 15,2 89,3 0 0 0 0,2 953
9 Lluta Medio 06-09-2026 02:00 15,2 89,4 0 0 0 0,2 953
8 Lluta Medio 06-09-2026 01:45 15,2 89,5 0 0,3 77 0,2 953
7 Lluta Medio 06-09-2026 01:30 15,2 90,3 0 0 239 0,2 953
6 Lluta Medio 06-09-2026 01:15 15,3 90,4 0 0 240 0,2 953
5 Lluta Medio 06-09-2026 01:00 15,2 90,7 0 0 0 0,2 953
4 Lluta Medio 06-09-2026 00:45 15,1 91,4 0 0 286 0,2 953
3 Lluta Medio 06-09-2026 00:30 15,1 91,5 0 0,2 287 0,2 953
2 Lluta Medio 06-09-2026 00:15 15,2 91,5 0 0,2 244 0,2 953
1 Lluta Medio 06-09-2026 00:00 15,2 91,5 0 0,4 268 0,2 953